sensor_id;sensor_type;location;lat;lon;timestamp;P1;durP1;ratioP1;P2;durP2;ratioP2
79074;SDS011;68476;42.710;23.388;2024-01-11T00:00:32;21.67;;;11.52;;
79074;SDS011;68476;42.710;23.388;2024-01-11T00:02:57;18.05;;;11.13;;
79074;SDS011;68476;42.710;23.388;2024-01-11T00:05:23;18.63;;;11.35;;
79074;SDS011;68476;42.710;23.388;2024-01-11T00:07:49;19.20;;;10.38;;
79074;SDS011;68476;42.710;23.388;2024-01-11T00:10:15;18.27;;;9.75;;
79074;SDS011;68476;42.710;23.388;2024-01-11T00:12:41;11.95;;;7.05;;
79074;SDS011;68476;42.710;23.388;2024-01-11T00:15:06;13.80;;;8.05;;
79074;SDS011;68476;42.710;23.388;2024-01-11T00:17:32;18.83;;;11.02;;
79074;SDS011;68476;42.710;23.388;2024-01-11T00:19:57;16.40;;;10.10;;
79074;SDS011;68476;42.710;23.388;2024-01-11T00:22:23;17.75;;;9.45;;
79074;SDS011;68476;42.710;23.388;2024-01-11T00:24:48;18.05;;;9.60;;
79074;SDS011;68476;42.710;23.388;2024-01-11T00:27:14;18.40;;;9.60;;
79074;SDS011;68476;42.710;23.388;2024-01-11T00:29:40;17.15;;;10.52;;
79074;SDS011;68476;42.710;23.388;2024-01-11T00:32:05;17.10;;;8.93;;
79074;SDS011;68476;42.710;23.388;2024-01-11T00:34:31;23.27;;;10.02;;
79074;SDS011;68476;42.710;23.388;2024-01-11T00:36:56;18.95;;;9.30;;
79074;SDS011;68476;42.710;23.388;2024-01-11T00:39:22;16.35;;;9.38;;
79074;SDS011;68476;42.710;23.388;2024-01-11T00:41:47;19.15;;;11.13;;
79074;SDS011;68476;42.710;23.388;2024-01-11T00:44:13;16.33;;;11.18;;
79074;SDS011;68476;42.710;23.388;2024-01-11T00:46:39;18.20;;;10.90;;
79074;SDS011;68476;42.710;23.388;2024-01-11T00:49:06;18.38;;;11.57;;
79074;SDS011;68476;42.710;23.388;2024-01-11T00:51:31;19.15;;;10.68;;
79074;SDS011;68476;42.710;23.388;2024-01-11T00:53:57;19.00;;;10.60;;
79074;SDS011;68476;42.710;23.388;2024-01-11T00:56:22;13.02;;;6.55;;
79074;SDS011;68476;42.710;23.388;2024-01-11T00:58:48;14.18;;;8.52;;
79074;SDS011;68476;42.710;23.388;2024-01-11T01:01:13;25.38;;;11.23;;
79074;SDS011;68476;42.710;23.388;2024-01-11T01:03:39;18.05;;;10.00;;
79074;SDS011;68476;42.710;23.388;2024-01-11T01:06:05;18.75;;;10.30;;
79074;SDS011;68476;42.710;23.388;2024-01-11T01:08:30;14.82;;;9.00;;
79074;SDS011;68476;42.710;23.388;2024-01-11T01:10:56;20.55;;;11.50;;
79074;SDS011;68476;42.710;23.388;2024-01-11T01:13:21;22.08;;;11.38;;
79074;SDS011;68476;42.710;23.388;2024-01-11T01:15:47;25.10;;;13.65;;
79074;SDS011;68476;42.710;23.388;2024-01-11T01:18:12;24.35;;;13.07;;
79074;SDS011;68476;42.710;23.388;2024-01-11T01:20:38;18.63;;;10.65;;
79074;SDS011;68476;42.710;23.388;2024-01-11T01:23:03;23.15;;;13.95;;
79074;SDS011;68476;42.710;23.388;2024-01-11T01:25:29;20.95;;;11.00;;
79074;SDS011;68476;42.710;23.388;2024-01-11T01:27:55;15.88;;;10.23;;
79074;SDS011;68476;42.710;23.388;2024-01-11T01:30:21;19.58;;;10.55;;
79074;SDS011;68476;42.710;23.388;2024-01-11T01:32:48;17.83;;;10.45;;
79074;SDS011;68476;42.710;23.388;2024-01-11T01:35:13;14.05;;;9.35;;
79074;SDS011;68476;42.710;23.388;2024-01-11T01:37:39;9.10;;;6.43;;
79074;SDS011;68476;42.710;23.388;2024-01-11T01:40:05;13.90;;;8.38;;
79074;SDS011;68476;42.710;23.388;2024-01-11T01:42:32;17.85;;;9.15;;
79074;SDS011;68476;42.710;23.388;2024-01-11T01:44:58;17.50;;;9.45;;
79074;SDS011;68476;42.710;23.388;2024-01-11T01:47:24;15.38;;;9.32;;
79074;SDS011;68476;42.710;23.388;2024-01-11T01:49:51;15.85;;;10.40;;
79074;SDS011;68476;42.710;23.388;2024-01-11T01:52:17;15.00;;;9.93;;
79074;SDS011;68476;42.710;23.388;2024-01-11T01:54:44;16.80;;;9.65;;
79074;SDS011;68476;42.710;23.388;2024-01-11T01:57:10;14.18;;;9.93;;
79074;SDS011;68476;42.710;23.388;2024-01-11T01:59:37;16.38;;;9.57;;
79074;SDS011;68476;42.710;23.388;2024-01-11T02:02:04;17.70;;;9.73;;
79074;SDS011;68476;42.710;23.388;2024-01-11T02:04:30;16.02;;;8.93;;
79074;SDS011;68476;42.710;23.388;2024-01-11T02:06:56;15.30;;;7.88;;
79074;SDS011;68476;42.710;23.388;2024-01-11T02:09:23;19.10;;;9.32;;
79074;SDS011;68476;42.710;23.388;2024-01-11T02:11:50;16.15;;;8.55;;
79074;SDS011;68476;42.710;23.388;2024-01-11T02:14:18;14.93;;;8.63;;
79074;SDS011;68476;42.710;23.388;2024-01-11T02:16:44;17.23;;;10.77;;
79074;SDS011;68476;42.710;23.388;2024-01-11T02:19:12;17.33;;;9.48;;
79074;SDS011;68476;42.710;23.388;2024-01-11T02:21:39;18.08;;;10.13;;
79074;SDS011;68476;42.710;23.388;2024-01-11T02:24:07;20.48;;;10.57;;
79074;SDS011;68476;42.710;23.388;2024-01-11T02:26:33;18.88;;;8.98;;
79074;SDS011;68476;42.710;23.388;2024-01-11T02:28:59;13.05;;;9.30;;
79074;SDS011;68476;42.710;23.388;2024-01-11T02:31:25;10.23;;;7.55;;
79074;SDS011;68476;42.710;23.388;2024-01-11T02:33:52;12.05;;;7.97;;
79074;SDS011;68476;42.710;23.388;2024-01-11T02:36:19;11.95;;;7.57;;
79074;SDS011;68476;42.710;23.388;2024-01-11T02:38:46;11.60;;;7.50;;
79074;SDS011;68476;42.710;23.388;2024-01-11T02:41:12;11.73;;;7.03;;
79074;SDS011;68476;42.710;23.388;2024-01-11T02:43:41;16.80;;;7.28;;
79074;SDS011;68476;42.710;23.388;2024-01-11T02:46:11;10.90;;;7.78;;
79074;SDS011;68476;42.710;23.388;2024-01-11T02:48:36;11.25;;;7.75;;
79074;SDS011;68476;42.710;23.388;2024-01-11T02:51:02;14.35;;;6.82;;
79074;SDS011;68476;42.710;23.388;2024-01-11T02:53:27;13.50;;;5.80;;
79074;SDS011;68476;42.710;23.388;2024-01-11T02:55:53;11.32;;;6.60;;
79074;SDS011;68476;42.710;23.388;2024-01-11T02:58:18;16.80;;;6.43;;
79074;SDS011;68476;42.710;23.388;2024-01-11T03:00:44;11.00;;;6.43;;
79074;SDS011;68476;42.710;23.388;2024-01-11T03:03:09;5.90;;;5.03;;
79074;SDS011;68476;42.710;23.388;2024-01-11T03:05:35;22.08;;;7.10;;
79074;SDS011;68476;42.710;23.388;2024-01-11T03:08:00;11.45;;;7.88;;
79074;SDS011;68476;42.710;23.388;2024-01-11T03:10:26;20.08;;;12.05;;
79074;SDS011;68476;42.710;23.388;2024-01-11T03:12:52;10.18;;;5.70;;
79074;SDS011;68476;42.710;23.388;2024-01-11T03:15:17;22.40;;;13.02;;
79074;SDS011;68476;42.710;23.388;2024-01-11T03:17:43;15.25;;;9.93;;
79074;SDS011;68476;42.710;23.388;2024-01-11T03:20:08;16.27;;;9.55;;
79074;SDS011;68476;42.710;23.388;2024-01-11T03:22:34;12.10;;;7.88;;
79074;SDS011;68476;42.710;23.388;2024-01-11T03:24:59;10.30;;;7.03;;
79074;SDS011;68476;42.710;23.388;2024-01-11T03:27:25;10.48;;;7.68;;
79074;SDS011;68476;42.710;23.388;2024-01-11T03:29:51;14.30;;;7.80;;
79074;SDS011;68476;42.710;23.388;2024-01-11T03:32:16;15.52;;;10.02;;
79074;SDS011;68476;42.710;23.388;2024-01-11T03:34:42;12.02;;;7.53;;
79074;SDS011;68476;42.710;23.388;2024-01-11T03:37:07;12.65;;;7.03;;
79074;SDS011;68476;42.710;23.388;2024-01-11T03:39:33;15.52;;;8.93;;
79074;SDS011;68476;42.710;23.388;2024-01-11T03:42:00;12.68;;;8.38;;
79074;SDS011;68476;42.710;23.388;2024-01-11T03:44:25;14.93;;;8.88;;
79074;SDS011;68476;42.710;23.388;2024-01-11T03:46:51;17.30;;;9.85;;
79074;SDS011;68476;42.710;23.388;2024-01-11T03:49:16;19.42;;;11.55;;
79074;SDS011;68476;42.710;23.388;2024-01-11T03:51:42;8.63;;;7.22;;
79074;SDS011;68476;42.710;23.388;2024-01-11T03:54:09;9.35;;;7.32;;
79074;SDS011;68476;42.710;23.388;2024-01-11T03:56:37;12.32;;;8.45;;
79074;SDS011;68476;42.710;23.388;2024-01-11T03:59:04;13.85;;;7.50;;
79074;SDS011;68476;42.710;23.388;2024-01-11T04:01:31;8.15;;;6.05;;
79074;SDS011;68476;42.710;23.388;2024-01-11T04:03:56;14.77;;;8.40;;
79074;SDS011;68476;42.710;23.388;2024-01-11T04:06:22;14.30;;;8.10;;
79074;SDS011;68476;42.710;23.388;2024-01-11T04:08:49;12.55;;;7.43;;
79074;SDS011;68476;42.710;23.388;2024-01-11T04:11:16;17.55;;;6.82;;
79074;SDS011;68476;42.710;23.388;2024-01-11T04:13:42;16.80;;;10.10;;
79074;SDS011;68476;42.710;23.388;2024-01-11T04:16:08;11.00;;;7.30;;
79074;SDS011;68476;42.710;23.388;2024-01-11T04:18:34;16.27;;;8.07;;
79074;SDS011;68476;42.710;23.388;2024-01-11T04:20:59;11.38;;;8.05;;
79074;SDS011;68476;42.710;23.388;2024-01-11T04:23:25;14.73;;;8.38;;
79074;SDS011;68476;42.710;23.388;2024-01-11T04:25:50;13.35;;;9.07;;
79074;SDS011;68476;42.710;23.388;2024-01-11T04:28:18;16.08;;;9.57;;
79074;SDS011;68476;42.710;23.388;2024-01-11T04:30:44;24.52;;;10.95;;
79074;SDS011;68476;42.710;23.388;2024-01-11T04:33:09;12.77;;;8.80;;
79074;SDS011;68476;42.710;23.388;2024-01-11T04:35:35;15.80;;;8.98;;
79074;SDS011;68476;42.710;23.388;2024-01-11T04:38:01;18.40;;;8.93;;
79074;SDS011;68476;42.710;23.388;2024-01-11T04:40:27;16.38;;;10.52;;
79074;SDS011;68476;42.710;23.388;2024-01-11T04:42:52;15.48;;;10.15;;
79074;SDS011;68476;42.710;23.388;2024-01-11T04:45:18;13.82;;;9.77;;
79074;SDS011;68476;42.710;23.388;2024-01-11T04:47:43;20.40;;;11.20;;
79074;SDS011;68476;42.710;23.388;2024-01-11T04:50:09;18.73;;;11.32;;
79074;SDS011;68476;42.710;23.388;2024-01-11T04:52:34;24.17;;;13.68;;
79074;SDS011;68476;42.710;23.388;2024-01-11T04:55:00;17.95;;;9.55;;
79074;SDS011;68476;42.710;23.388;2024-01-11T04:57:26;13.70;;;10.05;;
79074;SDS011;68476;42.710;23.388;2024-01-11T04:59:51;20.90;;;13.85;;
79074;SDS011;68476;42.710;23.388;2024-01-11T05:02:20;25.85;;;12.52;;
79074;SDS011;68476;42.710;23.388;2024-01-11T05:04:46;16.88;;;9.52;;
79074;SDS011;68476;42.710;23.388;2024-01-11T05:07:11;17.25;;;11.88;;
79074;SDS011;68476;42.710;23.388;2024-01-11T05:09:37;18.50;;;10.70;;
79074;SDS011;68476;42.710;23.388;2024-01-11T05:12:03;15.55;;;11.57;;
79074;SDS011;68476;42.710;23.388;2024-01-11T05:14:29;20.17;;;10.70;;
79074;SDS011;68476;42.710;23.388;2024-01-11T05:16:55;15.15;;;10.70;;
79074;SDS011;68476;42.710;23.388;2024-01-11T05:19:21;15.20;;;11.20;;
79074;SDS011;68476;42.710;23.388;2024-01-11T05:21:46;29.42;;;14.30;;
79074;SDS011;68476;42.710;23.388;2024-01-11T05:24:12;21.02;;;12.13;;
79074;SDS011;68476;42.710;23.388;2024-01-11T05:26:37;17.48;;;10.88;;
79074;SDS011;68476;42.710;23.388;2024-01-11T05:29:03;17.60;;;10.63;;
79074;SDS011;68476;42.710;23.388;2024-01-11T05:31:29;18.42;;;12.25;;
79074;SDS011;68476;42.710;23.388;2024-01-11T05:33:55;27.17;;;14.13;;
79074;SDS011;68476;42.710;23.388;2024-01-11T05:36:20;17.15;;;11.38;;
79074;SDS011;68476;42.710;23.388;2024-01-11T05:38:46;18.50;;;13.02;;
79074;SDS011;68476;42.710;23.388;2024-01-11T05:41:12;21.90;;;14.02;;
79074;SDS011;68476;42.710;23.388;2024-01-11T05:43:37;18.95;;;12.55;;
79074;SDS011;68476;42.710;23.388;2024-01-11T05:46:07;20.52;;;11.23;;
79074;SDS011;68476;42.710;23.388;2024-01-11T05:48:33;16.50;;;10.82;;
79074;SDS011;68476;42.710;23.388;2024-01-11T05:50:58;17.67;;;11.00;;
79074;SDS011;68476;42.710;23.388;2024-01-11T05:53:25;16.00;;;12.40;;
79074;SDS011;68476;42.710;23.388;2024-01-11T05:55:52;18.13;;;12.05;;
79074;SDS011;68476;42.710;23.388;2024-01-11T05:58:18;20.83;;;10.57;;
79074;SDS011;68476;42.710;23.388;2024-01-11T06:00:43;24.83;;;11.68;;
79074;SDS011;68476;42.710;23.388;2024-01-11T06:03:11;23.17;;;14.25;;
79074;SDS011;68476;42.710;23.388;2024-01-11T06:05:37;22.17;;;12.50;;
79074;SDS011;68476;42.710;23.388;2024-01-11T06:08:03;20.95;;;12.60;;
79074;SDS011;68476;42.710;23.388;2024-01-11T06:10:28;18.63;;;12.45;;
79074;SDS011;68476;42.710;23.388;2024-01-11T06:12:55;11.77;;;7.20;;
79074;SDS011;68476;42.710;23.388;2024-01-11T06:15:21;12.35;;;9.85;;
79074;SDS011;68476;42.710;23.388;2024-01-11T06:17:47;16.90;;;11.23;;
79074;SDS011;68476;42.710;23.388;2024-01-11T06:20:12;20.85;;;11.30;;
79074;SDS011;68476;42.710;23.388;2024-01-11T06:22:38;11.23;;;8.10;;
79074;SDS011;68476;42.710;23.388;2024-01-11T06:25:03;21.30;;;12.20;;
79074;SDS011;68476;42.710;23.388;2024-01-11T06:27:29;11.13;;;7.07;;
79074;SDS011;68476;42.710;23.388;2024-01-11T06:29:55;11.10;;;6.97;;
79074;SDS011;68476;42.710;23.388;2024-01-11T06:32:20;15.73;;;10.15;;
79074;SDS011;68476;42.710;23.388;2024-01-11T06:34:46;11.35;;;7.68;;
79074;SDS011;68476;42.710;23.388;2024-01-11T06:37:12;19.85;;;11.00;;
79074;SDS011;68476;42.710;23.388;2024-01-11T06:39:38;19.60;;;10.85;;
79074;SDS011;68476;42.710;23.388;2024-01-11T06:42:04;16.65;;;10.80;;
79074;SDS011;68476;42.710;23.388;2024-01-11T06:44:30;19.42;;;11.55;;
79074;SDS011;68476;42.710;23.388;2024-01-11T06:46:55;21.10;;;14.88;;
79074;SDS011;68476;42.710;23.388;2024-01-11T06:49:21;18.40;;;10.32;;
79074;SDS011;68476;42.710;23.388;2024-01-11T06:51:47;12.70;;;9.90;;
79074;SDS011;68476;42.710;23.388;2024-01-11T06:54:12;13.13;;;10.27;;
79074;SDS011;68476;42.710;23.388;2024-01-11T06:56:38;15.93;;;10.68;;
79074;SDS011;68476;42.710;23.388;2024-01-11T06:59:03;17.55;;;10.90;;
79074;SDS011;68476;42.710;23.388;2024-01-11T07:01:29;17.08;;;10.02;;
79074;SDS011;68476;42.710;23.388;2024-01-11T07:03:54;8.07;;;5.85;;
79074;SDS011;68476;42.710;23.388;2024-01-11T07:06:20;13.20;;;8.68;;
79074;SDS011;68476;42.710;23.388;2024-01-11T07:08:45;23.05;;;13.13;;
79074;SDS011;68476;42.710;23.388;2024-01-11T07:11:11;20.40;;;11.43;;
79074;SDS011;68476;42.710;23.388;2024-01-11T07:13:36;21.30;;;13.70;;
79074;SDS011;68476;42.710;23.388;2024-01-11T07:16:02;15.13;;;10.75;;
79074;SDS011;68476;42.710;23.388;2024-01-11T07:18:28;33.83;;;20.23;;
79074;SDS011;68476;42.710;23.388;2024-01-11T07:20:56;37.05;;;21.15;;
79074;SDS011;68476;42.710;23.388;2024-01-11T07:23:23;39.42;;;23.80;;
79074;SDS011;68476;42.710;23.388;2024-01-11T07:25:49;32.63;;;21.73;;
79074;SDS011;68476;42.710;23.388;2024-01-11T07:28:15;38.70;;;22.10;;
79074;SDS011;68476;42.710;23.388;2024-01-11T07:30:42;39.53;;;25.08;;
79074;SDS011;68476;42.710;23.388;2024-01-11T07:33:10;56.53;;;29.55;;
79074;SDS011;68476;42.710;23.388;2024-01-11T07:35:45;28.30;;;18.02;;
79074;SDS011;68476;42.710;23.388;2024-01-11T07:38:11;53.83;;;28.70;;
79074;SDS011;68476;42.710;23.388;2024-01-11T07:40:37;54.03;;;33.08;;
79074;SDS011;68476;42.710;23.388;2024-01-11T07:43:02;45.42;;;27.08;;
79074;SDS011;68476;42.710;23.388;2024-01-11T07:45:29;52.05;;;30.13;;
79074;SDS011;68476;42.710;23.388;2024-01-11T07:47:55;47.17;;;27.15;;
79074;SDS011;68476;42.710;23.388;2024-01-11T07:50:20;31.25;;;19.90;;
79074;SDS011;68476;42.710;23.388;2024-01-11T07:52:46;34.38;;;21.92;;
79074;SDS011;68476;42.710;23.388;2024-01-11T07:55:12;29.88;;;20.13;;
79074;SDS011;68476;42.710;23.388;2024-01-11T07:57:38;37.95;;;20.73;;
79074;SDS011;68476;42.710;23.388;2024-01-11T08:00:04;32.97;;;20.20;;
79074;SDS011;68476;42.710;23.388;2024-01-11T08:02:34;29.80;;;16.38;;
79074;SDS011;68476;42.710;23.388;2024-01-11T08:04:59;16.45;;;11.68;;
79074;SDS011;68476;42.710;23.388;2024-01-11T08:07:25;12.93;;;8.88;;
79074;SDS011;68476;42.710;23.388;2024-01-11T08:09:52;24.63;;;14.00;;
79074;SDS011;68476;42.710;23.388;2024-01-11T08:12:17;36.38;;;18.98;;
79074;SDS011;68476;42.710;23.388;2024-01-11T08:14:42;27.75;;;17.13;;
79074;SDS011;68476;42.710;23.388;2024-01-11T08:17:08;21.00;;;13.40;;
79074;SDS011;68476;42.710;23.388;2024-01-11T08:19:34;23.00;;;12.73;;
79074;SDS011;68476;42.710;23.388;2024-01-11T08:22:00;22.17;;;12.13;;
79074;SDS011;68476;42.710;23.388;2024-01-11T08:24:26;13.63;;;8.05;;
79074;SDS011;68476;42.710;23.388;2024-01-11T08:26:52;23.80;;;13.32;;
79074;SDS011;68476;42.710;23.388;2024-01-11T08:29:17;11.13;;;7.40;;
79074;SDS011;68476;42.710;23.388;2024-01-11T08:31:45;15.75;;;9.82;;
79074;SDS011;68476;42.710;23.388;2024-01-11T08:34:11;22.88;;;13.90;;
79074;SDS011;68476;42.710;23.388;2024-01-11T08:36:36;16.20;;;10.88;;
79074;SDS011;68476;42.710;23.388;2024-01-11T08:39:04;12.90;;;8.90;;
79074;SDS011;68476;42.710;23.388;2024-01-11T08:41:33;16.58;;;10.65;;
79074;SDS011;68476;42.710;23.388;2024-01-11T08:46:30;9.35;;;6.43;;
79074;SDS011;68476;42.710;23.388;2024-01-11T08:48:58;16.85;;;10.20;;
79074;SDS011;68476;42.710;23.388;2024-01-11T08:51:23;17.45;;;10.52;;
79074;SDS011;68476;42.710;23.388;2024-01-11T08:53:49;13.63;;;8.20;;
79074;SDS011;68476;42.710;23.388;2024-01-11T08:56:21;26.77;;;14.68;;
79074;SDS011;68476;42.710;23.388;2024-01-11T08:58:46;28.45;;;16.63;;
79074;SDS011;68476;42.710;23.388;2024-01-11T09:01:13;24.48;;;12.95;;
79074;SDS011;68476;42.710;23.388;2024-01-11T09:03:39;29.98;;;16.27;;
79074;SDS011;68476;42.710;23.388;2024-01-11T09:06:04;28.60;;;14.23;;
79074;SDS011;68476;42.710;23.388;2024-01-11T09:08:31;28.50;;;15.20;;
79074;SDS011;68476;42.710;23.388;2024-01-11T09:10:56;25.38;;;14.25;;
79074;SDS011;68476;42.710;23.388;2024-01-11T09:13:28;26.00;;;14.57;;
79074;SDS011;68476;42.710;23.388;2024-01-11T09:15:54;27.10;;;14.55;;
79074;SDS011;68476;42.710;23.388;2024-01-11T09:18:20;27.65;;;16.42;;
79074;SDS011;68476;42.710;23.388;2024-01-11T09:20:47;25.67;;;14.77;;
79074;SDS011;68476;42.710;23.388;2024-01-11T09:23:13;28.35;;;15.30;;
79074;SDS011;68476;42.710;23.388;2024-01-11T09:25:38;22.55;;;14.82;;
79074;SDS011;68476;42.710;23.388;2024-01-11T09:28:05;18.10;;;12.63;;
79074;SDS011;68476;42.710;23.388;2024-01-11T09:30:30;25.15;;;16.27;;
79074;SDS011;68476;42.710;23.388;2024-01-11T09:32:56;22.50;;;14.82;;
79074;SDS011;68476;42.710;23.388;2024-01-11T09:35:22;25.48;;;14.57;;
79074;SDS011;68476;42.710;23.388;2024-01-11T09:37:48;22.58;;;14.27;;
79074;SDS011;68476;42.710;23.388;2024-01-11T09:40:14;23.30;;;15.18;;
79074;SDS011;68476;42.710;23.388;2024-01-11T09:42:41;24.80;;;14.90;;
79074;SDS011;68476;42.710;23.388;2024-01-11T09:45:07;28.00;;;16.52;;
79074;SDS011;68476;42.710;23.388;2024-01-11T09:47:35;19.95;;;13.73;;
79074;SDS011;68476;42.710;23.388;2024-01-11T09:50:07;23.38;;;13.70;;
79074;SDS011;68476;42.710;23.388;2024-01-11T09:52:33;19.00;;;12.20;;
79074;SDS011;68476;42.710;23.388;2024-01-11T09:54:59;24.85;;;13.52;;
79074;SDS011;68476;42.710;23.388;2024-01-11T09:57:29;21.60;;;15.00;;
79074;SDS011;68476;42.710;23.388;2024-01-11T09:59:56;18.50;;;12.20;;
79074;SDS011;68476;42.710;23.388;2024-01-11T10:02:26;24.70;;;15.70;;
79074;SDS011;68476;42.710;23.388;2024-01-11T10:04:52;22.38;;;14.38;;
79074;SDS011;68476;42.710;23.388;2024-01-11T10:07:18;28.00;;;16.65;;
79074;SDS011;68476;42.710;23.388;2024-01-11T10:09:47;26.75;;;17.30;;
79074;SDS011;68476;42.710;23.388;2024-01-11T10:12:12;29.73;;;17.88;;
79074;SDS011;68476;42.710;23.388;2024-01-11T10:14:38;28.25;;;18.75;;
79074;SDS011;68476;42.710;23.388;2024-01-11T10:17:04;30.63;;;19.83;;
79074;SDS011;68476;42.710;23.388;2024-01-11T10:19:30;31.98;;;20.55;;
79074;SDS011;68476;42.710;23.388;2024-01-11T10:21:56;33.80;;;22.40;;
79074;SDS011;68476;42.710;23.388;2024-01-11T10:24:22;35.60;;;22.80;;
79074;SDS011;68476;42.710;23.388;2024-01-11T10:26:51;33.90;;;20.98;;
79074;SDS011;68476;42.710;23.388;2024-01-11T10:29:32;34.65;;;22.30;;
79074;SDS011;68476;42.710;23.388;2024-01-11T10:32:00;42.03;;;25.58;;
79074;SDS011;68476;42.710;23.388;2024-01-11T10:34:25;45.92;;;29.17;;
79074;SDS011;68476;42.710;23.388;2024-01-11T10:36:51;51.47;;;30.05;;
79074;SDS011;68476;42.710;23.388;2024-01-11T10:39:17;37.10;;;23.30;;
79074;SDS011;68476;42.710;23.388;2024-01-11T10:41:47;31.58;;;19.60;;
79074;SDS011;68476;42.710;23.388;2024-01-11T10:44:19;29.50;;;19.27;;
79074;SDS011;68476;42.710;23.388;2024-01-11T10:46:47;23.75;;;14.82;;
79074;SDS011;68476;42.710;23.388;2024-01-11T10:49:17;23.77;;;14.95;;
79074;SDS011;68476;42.710;23.388;2024-01-11T10:52:04;23.20;;;15.55;;
79074;SDS011;68476;42.710;23.388;2024-01-11T10:54:35;20.52;;;13.90;;
79074;SDS011;68476;42.710;23.388;2024-01-11T10:57:02;20.83;;;13.82;;
79074;SDS011;68476;42.710;23.388;2024-01-11T10:59:31;21.42;;;13.75;;
79074;SDS011;68476;42.710;23.388;2024-01-11T11:01:57;19.85;;;13.55;;
79074;SDS011;68476;42.710;23.388;2024-01-11T11:04:29;19.75;;;13.75;;
79074;SDS011;68476;42.710;23.388;2024-01-11T11:06:58;20.88;;;13.90;;
79074;SDS011;68476;42.710;23.388;2024-01-11T11:09:27;20.15;;;14.15;;
79074;SDS011;68476;42.710;23.388;2024-01-11T11:11:55;19.40;;;13.32;;
79074;SDS011;68476;42.710;23.388;2024-01-11T11:14:23;19.58;;;13.90;;
79074;SDS011;68476;42.710;23.388;2024-01-11T11:16:50;17.90;;;12.77;;
79074;SDS011;68476;42.710;23.388;2024-01-11T11:19:17;18.92;;;13.05;;
79074;SDS011;68476;42.710;23.388;2024-01-11T11:21:45;18.77;;;12.75;;
79074;SDS011;68476;42.710;23.388;2024-01-11T11:24:11;20.25;;;13.35;;
79074;SDS011;68476;42.710;23.388;2024-01-11T11:26:37;17.48;;;12.55;;
79074;SDS011;68476;42.710;23.388;2024-01-11T11:29:03;19.02;;;12.23;;
79074;SDS011;68476;42.710;23.388;2024-01-11T11:31:47;15.40;;;11.93;;
79074;SDS011;68476;42.710;23.388;2024-01-11T11:34:18;16.05;;;11.20;;
79074;SDS011;68476;42.710;23.388;2024-01-11T11:36:47;17.70;;;11.18;;
79074;SDS011;68476;42.710;23.388;2024-01-11T11:39:17;16.58;;;11.00;;
79074;SDS011;68476;42.710;23.388;2024-01-11T11:41:44;16.45;;;10.63;;
79074;SDS011;68476;42.710;23.388;2024-01-11T11:44:11;16.35;;;12.10;;
79074;SDS011;68476;42.710;23.388;2024-01-11T11:46:40;16.67;;;11.23;;
79074;SDS011;68476;42.710;23.388;2024-01-11T11:49:06;18.35;;;11.52;;
79074;SDS011;68476;42.710;23.388;2024-01-11T11:51:32;16.95;;;11.80;;
79074;SDS011;68476;42.710;23.388;2024-01-11T11:53:58;16.38;;;11.35;;
79074;SDS011;68476;42.710;23.388;2024-01-11T11:56:23;17.85;;;10.98;;
79074;SDS011;68476;42.710;23.388;2024-01-11T11:58:49;14.65;;;10.10;;
79074;SDS011;68476;42.710;23.388;2024-01-11T12:01:17;15.45;;;11.20;;
79074;SDS011;68476;42.710;23.388;2024-01-11T12:03:43;16.02;;;10.80;;
79074;SDS011;68476;42.710;23.388;2024-01-11T12:06:19;14.95;;;10.75;;
79074;SDS011;68476;42.710;23.388;2024-01-11T12:08:48;16.13;;;10.07;;
79074;SDS011;68476;42.710;23.388;2024-01-11T12:11:17;15.73;;;10.98;;
79074;SDS011;68476;42.710;23.388;2024-01-11T12:13:47;17.42;;;10.15;;
79074;SDS011;68476;42.710;23.388;2024-01-11T12:16:13;16.83;;;11.23;;
79074;SDS011;68476;42.710;23.388;2024-01-11T12:18:39;17.50;;;10.88;;
79074;SDS011;68476;42.710;23.388;2024-01-11T12:21:06;15.80;;;10.88;;
79074;SDS011;68476;42.710;23.388;2024-01-11T12:23:34;19.27;;;12.32;;
79074;SDS011;68476;42.710;23.388;2024-01-11T12:26:03;18.77;;;11.80;;
79074;SDS011;68476;42.710;23.388;2024-01-11T12:28:33;25.38;;;14.32;;
79074;SDS011;68476;42.710;23.388;2024-01-11T12:30:59;25.25;;;16.23;;
79074;SDS011;68476;42.710;23.388;2024-01-11T12:33:25;23.48;;;15.00;;
79074;SDS011;68476;42.710;23.388;2024-01-11T12:35:52;20.92;;;14.32;;
79074;SDS011;68476;42.710;23.388;2024-01-11T12:38:18;18.65;;;13.43;;
79074;SDS011;68476;42.710;23.388;2024-01-11T12:40:43;31.13;;;15.05;;
79074;SDS011;68476;42.710;23.388;2024-01-11T12:43:11;21.35;;;13.80;;
79074;SDS011;68476;42.710;23.388;2024-01-11T12:45:36;22.05;;;14.88;;
79074;SDS011;68476;42.710;23.388;2024-01-11T12:48:03;25.80;;;15.32;;
79074;SDS011;68476;42.710;23.388;2024-01-11T12:50:32;22.23;;;16.33;;
79074;SDS011;68476;42.710;23.388;2024-01-11T12:53:08;26.65;;;18.90;;
79074;SDS011;68476;42.710;23.388;2024-01-11T12:55:43;31.20;;;19.65;;
79074;SDS011;68476;42.710;23.388;2024-01-11T12:58:12;29.25;;;19.27;;
79074;SDS011;68476;42.710;23.388;2024-01-11T13:00:38;28.05;;;20.20;;
79074;SDS011;68476;42.710;23.388;2024-01-11T13:03:04;33.58;;;17.70;;
79074;SDS011;68476;42.710;23.388;2024-01-11T13:05:30;31.23;;;21.63;;
79074;SDS011;68476;42.710;23.388;2024-01-11T13:08:07;35.15;;;21.83;;
79074;SDS011;68476;42.710;23.388;2024-01-11T13:10:33;33.38;;;21.27;;
79074;SDS011;68476;42.710;23.388;2024-01-11T13:13:01;33.75;;;23.02;;
79074;SDS011;68476;42.710;23.388;2024-01-11T13:15:27;31.20;;;22.63;;
79074;SDS011;68476;42.710;23.388;2024-01-11T13:17:54;33.60;;;22.00;;
79074;SDS011;68476;42.710;23.388;2024-01-11T13:20:23;30.52;;;21.15;;
79074;SDS011;68476;42.710;23.388;2024-01-11T13:22:49;35.40;;;22.38;;
79074;SDS011;68476;42.710;23.388;2024-01-11T13:25:18;30.00;;;20.50;;
79074;SDS011;68476;42.710;23.388;2024-01-11T13:27:44;28.80;;;19.08;;
79074;SDS011;68476;42.710;23.388;2024-01-11T13:30:10;23.65;;;15.38;;
79074;SDS011;68476;42.710;23.388;2024-01-11T13:32:35;18.55;;;12.57;;
79074;SDS011;68476;42.710;23.388;2024-01-11T13:35:01;10.20;;;6.85;;
79074;SDS011;68476;42.710;23.388;2024-01-11T13:37:26;7.68;;;4.55;;
79074;SDS011;68476;42.710;23.388;2024-01-11T13:39:52;5.40;;;3.85;;
79074;SDS011;68476;42.710;23.388;2024-01-11T13:42:17;6.53;;;3.90;;
79074;SDS011;68476;42.710;23.388;2024-01-11T13:44:43;5.25;;;3.65;;
79074;SDS011;68476;42.710;23.388;2024-01-11T13:47:08;5.90;;;4.00;;
79074;SDS011;68476;42.710;23.388;2024-01-11T13:49:34;7.90;;;4.43;;
79074;SDS011;68476;42.710;23.388;2024-01-11T13:51:59;6.82;;;3.80;;
79074;SDS011;68476;42.710;23.388;2024-01-11T13:54:25;6.28;;;4.30;;
79074;SDS011;68476;42.710;23.388;2024-01-11T13:56:50;7.03;;;4.47;;
79074;SDS011;68476;42.710;23.388;2024-01-11T13:59:19;6.85;;;4.18;;
79074;SDS011;68476;42.710;23.388;2024-01-11T14:01:45;9.52;;;4.57;;
79074;SDS011;68476;42.710;23.388;2024-01-11T14:04:10;10.27;;;4.82;;
79074;SDS011;68476;42.710;23.388;2024-01-11T14:06:36;6.47;;;4.35;;
79074;SDS011;68476;42.710;23.388;2024-01-11T14:09:02;6.45;;;4.70;;
79074;SDS011;68476;42.710;23.388;2024-01-11T14:11:29;7.18;;;4.28;;